Airfield :
LOGIN :

Register | Disclaimer

   EN    FR    IT 

 










Legend :    VFR   Marginal VFR   IFR   Intensive IFR   Very Intensive IFR
Visi :
Ceiling :
>= 8 km
>= 3000ft
5 to 8 km
1000 to 3000 ft
1500m to 5 km
500 to 1000 ft
800 to 1500m
200 to 500 ft
< 800m
< 200 ft
Symbols :   Thunderstorms  Fog  Heavy snow  Heavy precipitations  Wind > 20 kt
SIGMETs :     Misc.  Thunderstorms  Icing  Turbulence  Mountain Waves  Volcanic Ashes






- Airport Elevation : 112 ft
- IATA code : SVQ


LEZL - Sevilla San Pablo

CURRENT METAR :
  • 161300Z 33004KT CAVOK 33/06 Q1015 NOSIG

EXPIRED METARs :
  • 161230Z 34005KT 260V050 CAVOK 34/08 Q1015 NOSIG
  • 161200Z 29006KT 240V010 CAVOK 32/05 Q1016 NOSIG
  • 161130Z 31006KT 240V030 CAVOK 31/09 Q1016 NOSIG
  • 161100Z 30005KT 210V010 CAVOK 30/10 Q1016 NOSIG
  • 161030Z 21002KT CAVOK 30/09 Q1016 NOSIG
  • 161000Z 11003KT 050V160 CAVOK 29/12 Q1016 NOSIG
  • 160930Z VRB02KT CAVOK 28/13 Q1016 NOSIG
  • 160900Z VRB03KT CAVOK 27/13 Q1016 NOSIG
  • 160830Z 05002KT CAVOK 26/12 Q1017 NOSIG
  • 160800Z 06004KT 020V110 CAVOK 25/12 Q1017 NOSIG

TAF TAF LEZL
Valid from the 16 at 09:00 until the 17 at 09:00 UTC


160800Z 1609/1709 30005KT CAVOK TX37/1615Z TN20/1706Z
BECMG 1616/1618 22010KT
BECMG 1623/1701 VRB02KT



MET'MAP, your aeronautical weather chart ! - Copyright ORBIFLY December 2007 - Disclaimer

ORBIFLY MET'MAP TEAM :

Programming & Development : Alexandra Zaïnal
Original concept : Baudouin d'Aumeries
Technical & hardware support : Manuel Goepfert
Assistance : Marc-Olivier Méhu




SOURCES & CREDITS :

   NOAA